sensor_id;sensor_type;location;lat;lon;timestamp;P1;durP1;ratioP1;P2;durP2;ratioP2
18200;SDS011;9226;47.858;9.594;2024-03-08T00:00:10;31.53;;;11.90;;
18200;SDS011;9226;47.858;9.594;2024-03-08T00:02:39;29.17;;;12.07;;
18200;SDS011;9226;47.858;9.594;2024-03-08T00:05:06;32.57;;;12.33;;
18200;SDS011;9226;47.858;9.594;2024-03-08T00:07:34;31.43;;;11.77;;
18200;SDS011;9226;47.858;9.594;2024-03-08T00:10:05;32.53;;;12.33;;
18200;SDS011;9226;47.858;9.594;2024-03-08T00:12:36;33.13;;;11.13;;
18200;SDS011;9226;47.858;9.594;2024-03-08T00:15:11;37.77;;;11.97;;
18200;SDS011;9226;47.858;9.594;2024-03-08T00:17:41;30.80;;;12.07;;
18200;SDS011;9226;47.858;9.594;2024-03-08T00:20:07;28.83;;;11.27;;
18200;SDS011;9226;47.858;9.594;2024-03-08T00:22:36;26.93;;;11.00;;
18200;SDS011;9226;47.858;9.594;2024-03-08T00:25:05;33.17;;;12.17;;
18200;SDS011;9226;47.858;9.594;2024-03-08T00:27:34;33.10;;;11.50;;
18200;SDS011;9226;47.858;9.594;2024-03-08T00:30:00;28.73;;;10.47;;
18200;SDS011;9226;47.858;9.594;2024-03-08T00:32:26;35.70;;;11.90;;
18200;SDS011;9226;47.858;9.594;2024-03-08T00:34:52;32.33;;;11.70;;
18200;SDS011;9226;47.858;9.594;2024-03-08T00:37:19;32.10;;;12.23;;
18200;SDS011;9226;47.858;9.594;2024-03-08T00:39:45;33.00;;;12.73;;
18200;SDS011;9226;47.858;9.594;2024-03-08T00:42:10;36.30;;;11.70;;
18200;SDS011;9226;47.858;9.594;2024-03-08T00:44:36;34.90;;;12.83;;
18200;SDS011;9226;47.858;9.594;2024-03-08T00:47:01;31.37;;;12.00;;
18200;SDS011;9226;47.858;9.594;2024-03-08T00:49:28;35.00;;;12.93;;
18200;SDS011;9226;47.858;9.594;2024-03-08T00:51:53;36.30;;;13.40;;
18200;SDS011;9226;47.858;9.594;2024-03-08T00:54:19;34.43;;;12.87;;
18200;SDS011;9226;47.858;9.594;2024-03-08T00:56:44;33.33;;;11.93;;
18200;SDS011;9226;47.858;9.594;2024-03-08T00:59:10;37.43;;;12.33;;
18200;SDS011;9226;47.858;9.594;2024-03-08T01:01:36;28.03;;;11.47;;
18200;SDS011;9226;47.858;9.594;2024-03-08T01:04:01;35.27;;;12.90;;
18200;SDS011;9226;47.858;9.594;2024-03-08T01:06:27;32.33;;;11.57;;
18200;SDS011;9226;47.858;9.594;2024-03-08T01:08:52;33.43;;;12.20;;
18200;SDS011;9226;47.858;9.594;2024-03-08T01:11:17;34.70;;;12.63;;
18200;SDS011;9226;47.858;9.594;2024-03-08T01:13:43;30.87;;;11.53;;
18200;SDS011;9226;47.858;9.594;2024-03-08T01:16:12;36.77;;;12.10;;
18200;SDS011;9226;47.858;9.594;2024-03-08T01:18:37;42.27;;;13.23;;
18200;SDS011;9226;47.858;9.594;2024-03-08T01:21:03;36.77;;;12.60;;
18200;SDS011;9226;47.858;9.594;2024-03-08T01:23:29;39.40;;;12.87;;
18200;SDS011;9226;47.858;9.594;2024-03-08T01:25:54;37.43;;;12.33;;
18200;SDS011;9226;47.858;9.594;2024-03-08T01:28:25;32.43;;;12.73;;
18200;SDS011;9226;47.858;9.594;2024-03-08T01:30:51;35.73;;;12.97;;
18200;SDS011;9226;47.858;9.594;2024-03-08T01:33:21;34.80;;;12.93;;
18200;SDS011;9226;47.858;9.594;2024-03-08T01:35:48;36.33;;;13.43;;
18200;SDS011;9226;47.858;9.594;2024-03-08T01:38:13;38.47;;;13.93;;
18200;SDS011;9226;47.858;9.594;2024-03-08T01:40:38;35.83;;;12.53;;
18200;SDS011;9226;47.858;9.594;2024-03-08T01:43:19;39.93;;;13.17;;
18200;SDS011;9226;47.858;9.594;2024-03-08T01:45:45;39.60;;;14.33;;
18200;SDS011;9226;47.858;9.594;2024-03-08T01:48:10;34.17;;;12.90;;
18200;SDS011;9226;47.858;9.594;2024-03-08T01:50:37;34.40;;;12.60;;
18200;SDS011;9226;47.858;9.594;2024-03-08T01:53:04;40.60;;;12.90;;
18200;SDS011;9226;47.858;9.594;2024-03-08T01:55:30;38.13;;;14.00;;
18200;SDS011;9226;47.858;9.594;2024-03-08T01:57:55;48.33;;;14.23;;
18200;SDS011;9226;47.858;9.594;2024-03-08T02:00:21;41.50;;;14.37;;
18200;SDS011;9226;47.858;9.594;2024-03-08T02:02:47;42.33;;;13.47;;
18200;SDS011;9226;47.858;9.594;2024-03-08T02:05:15;36.93;;;13.13;;
18200;SDS011;9226;47.858;9.594;2024-03-08T02:07:44;35.50;;;13.20;;
18200;SDS011;9226;47.858;9.594;2024-03-08T02:10:09;37.80;;;12.97;;
18200;SDS011;9226;47.858;9.594;2024-03-08T02:12:37;42.13;;;14.47;;
18200;SDS011;9226;47.858;9.594;2024-03-08T02:15:03;40.20;;;14.07;;
18200;SDS011;9226;47.858;9.594;2024-03-08T02:17:28;37.30;;;13.70;;
18200;SDS011;9226;47.858;9.594;2024-03-08T02:19:55;38.97;;;14.17;;
18200;SDS011;9226;47.858;9.594;2024-03-08T02:22:21;33.93;;;13.10;;
18200;SDS011;9226;47.858;9.594;2024-03-08T02:24:47;37.43;;;14.27;;
18200;SDS011;9226;47.858;9.594;2024-03-08T02:27:13;41.17;;;15.33;;
18200;SDS011;9226;47.858;9.594;2024-03-08T02:29:38;33.13;;;13.47;;
18200;SDS011;9226;47.858;9.594;2024-03-08T02:32:06;41.30;;;13.90;;
18200;SDS011;9226;47.858;9.594;2024-03-08T02:34:31;42.37;;;15.20;;
18200;SDS011;9226;47.858;9.594;2024-03-08T02:36:56;38.43;;;13.70;;
18200;SDS011;9226;47.858;9.594;2024-03-08T02:39:22;44.30;;;14.87;;
18200;SDS011;9226;47.858;9.594;2024-03-08T02:41:47;39.53;;;14.30;;
18200;SDS011;9226;47.858;9.594;2024-03-08T02:44:13;37.03;;;13.97;;
18200;SDS011;9226;47.858;9.594;2024-03-08T02:46:38;39.73;;;14.87;;
18200;SDS011;9226;47.858;9.594;2024-03-08T02:49:03;48.13;;;15.73;;
18200;SDS011;9226;47.858;9.594;2024-03-08T02:51:29;50.07;;;15.57;;
18200;SDS011;9226;47.858;9.594;2024-03-08T02:53:55;42.67;;;15.30;;
18200;SDS011;9226;47.858;9.594;2024-03-08T02:56:21;42.23;;;15.23;;
18200;SDS011;9226;47.858;9.594;2024-03-08T02:58:47;38.20;;;14.37;;
18200;SDS011;9226;47.858;9.594;2024-03-08T03:01:13;45.17;;;14.93;;
18200;SDS011;9226;47.858;9.594;2024-03-08T03:03:40;41.67;;;14.77;;
18200;SDS011;9226;47.858;9.594;2024-03-08T03:06:06;44.87;;;15.40;;
18200;SDS011;9226;47.858;9.594;2024-03-08T03:08:32;41.13;;;14.57;;
18200;SDS011;9226;47.858;9.594;2024-03-08T03:10:57;41.93;;;14.60;;
18200;SDS011;9226;47.858;9.594;2024-03-08T03:13:23;41.33;;;14.77;;
18200;SDS011;9226;47.858;9.594;2024-03-08T03:15:48;43.93;;;15.07;;
18200;SDS011;9226;47.858;9.594;2024-03-08T03:18:14;42.93;;;14.90;;
18200;SDS011;9226;47.858;9.594;2024-03-08T03:20:40;48.93;;;15.23;;
18200;SDS011;9226;47.858;9.594;2024-03-08T03:23:07;42.10;;;14.73;;
18200;SDS011;9226;47.858;9.594;2024-03-08T03:25:39;38.07;;;14.63;;
18200;SDS011;9226;47.858;9.594;2024-03-08T03:28:05;43.27;;;14.60;;
18200;SDS011;9226;47.858;9.594;2024-03-08T03:30:33;42.77;;;15.13;;
18200;SDS011;9226;47.858;9.594;2024-03-08T03:32:59;41.60;;;14.87;;
18200;SDS011;9226;47.858;9.594;2024-03-08T03:35:26;43.80;;;14.47;;
18200;SDS011;9226;47.858;9.594;2024-03-08T03:37:52;48.37;;;14.70;;
18200;SDS011;9226;47.858;9.594;2024-03-08T03:40:33;40.43;;;14.67;;
18200;SDS011;9226;47.858;9.594;2024-03-08T03:42:59;46.43;;;15.43;;
18200;SDS011;9226;47.858;9.594;2024-03-08T03:45:25;46.60;;;15.80;;
18200;SDS011;9226;47.858;9.594;2024-03-08T03:47:51;50.23;;;15.67;;
18200;SDS011;9226;47.858;9.594;2024-03-08T03:50:17;50.13;;;15.63;;
18200;SDS011;9226;47.858;9.594;2024-03-08T03:52:44;45.53;;;14.67;;
18200;SDS011;9226;47.858;9.594;2024-03-08T03:55:10;40.67;;;14.70;;
18200;SDS011;9226;47.858;9.594;2024-03-08T03:57:37;44.07;;;15.57;;
18200;SDS011;9226;47.858;9.594;2024-03-08T04:00:03;49.47;;;15.97;;
18200;SDS011;9226;47.858;9.594;2024-03-08T04:02:29;44.57;;;15.40;;
18200;SDS011;9226;47.858;9.594;2024-03-08T04:04:55;56.57;;;16.83;;
18200;SDS011;9226;47.858;9.594;2024-03-08T04:07:20;46.43;;;16.73;;
18200;SDS011;9226;47.858;9.594;2024-03-08T04:09:46;51.57;;;17.03;;
18200;SDS011;9226;47.858;9.594;2024-03-08T04:12:12;50.67;;;16.27;;
18200;SDS011;9226;47.858;9.594;2024-03-08T04:14:38;46.30;;;14.40;;
18200;SDS011;9226;47.858;9.594;2024-03-08T04:17:06;48.40;;;16.87;;
18200;SDS011;9226;47.858;9.594;2024-03-08T04:19:31;47.53;;;15.27;;
18200;SDS011;9226;47.858;9.594;2024-03-08T04:21:57;45.37;;;15.80;;
18200;SDS011;9226;47.858;9.594;2024-03-08T04:24:22;45.07;;;16.17;;
18200;SDS011;9226;47.858;9.594;2024-03-08T04:26:47;43.77;;;15.13;;
18200;SDS011;9226;47.858;9.594;2024-03-08T04:29:13;43.57;;;14.97;;
18200;SDS011;9226;47.858;9.594;2024-03-08T04:31:39;51.20;;;16.47;;
18200;SDS011;9226;47.858;9.594;2024-03-08T04:34:05;49.20;;;16.20;;
18200;SDS011;9226;47.858;9.594;2024-03-08T04:36:30;44.43;;;15.67;;
18200;SDS011;9226;47.858;9.594;2024-03-08T04:38:56;50.37;;;16.40;;
18200;SDS011;9226;47.858;9.594;2024-03-08T04:41:21;50.67;;;16.03;;
18200;SDS011;9226;47.858;9.594;2024-03-08T04:43:48;47.97;;;15.17;;
18200;SDS011;9226;47.858;9.594;2024-03-08T04:46:14;44.30;;;15.90;;
18200;SDS011;9226;47.858;9.594;2024-03-08T04:48:39;44.30;;;15.43;;
18200;SDS011;9226;47.858;9.594;2024-03-08T04:51:06;48.93;;;15.97;;
18200;SDS011;9226;47.858;9.594;2024-03-08T04:53:32;52.40;;;16.00;;
18200;SDS011;9226;47.858;9.594;2024-03-08T04:55:59;43.50;;;15.37;;
18200;SDS011;9226;47.858;9.594;2024-03-08T04:58:25;42.97;;;15.57;;
18200;SDS011;9226;47.858;9.594;2024-03-08T05:00:50;45.67;;;15.50;;
18200;SDS011;9226;47.858;9.594;2024-03-08T05:03:16;47.33;;;15.30;;
18200;SDS011;9226;47.858;9.594;2024-03-08T05:05:41;45.57;;;15.27;;
18200;SDS011;9226;47.858;9.594;2024-03-08T05:08:07;47.37;;;16.07;;
18200;SDS011;9226;47.858;9.594;2024-03-08T05:10:32;44.57;;;15.10;;
18200;SDS011;9226;47.858;9.594;2024-03-08T05:12:58;47.90;;;16.03;;
18200;SDS011;9226;47.858;9.594;2024-03-08T05:15:23;46.80;;;15.30;;
18200;SDS011;9226;47.858;9.594;2024-03-08T05:17:48;43.73;;;15.03;;
18200;SDS011;9226;47.858;9.594;2024-03-08T05:20:14;41.13;;;14.77;;
18200;SDS011;9226;47.858;9.594;2024-03-08T05:22:41;47.17;;;15.90;;
18200;SDS011;9226;47.858;9.594;2024-03-08T05:25:06;47.33;;;14.67;;
18200;SDS011;9226;47.858;9.594;2024-03-08T05:27:33;44.20;;;14.97;;
18200;SDS011;9226;47.858;9.594;2024-03-08T05:29:59;46.10;;;15.03;;
18200;SDS011;9226;47.858;9.594;2024-03-08T05:32:24;46.30;;;14.90;;
18200;SDS011;9226;47.858;9.594;2024-03-08T05:34:50;45.97;;;15.73;;
18200;SDS011;9226;47.858;9.594;2024-03-08T05:37:15;42.77;;;14.80;;
18200;SDS011;9226;47.858;9.594;2024-03-08T05:39:40;53.57;;;16.13;;
18200;SDS011;9226;47.858;9.594;2024-03-08T05:42:06;48.90;;;16.20;;
18200;SDS011;9226;47.858;9.594;2024-03-08T05:44:33;46.43;;;15.13;;
18200;SDS011;9226;47.858;9.594;2024-03-08T05:46:59;45.57;;;14.80;;
18200;SDS011;9226;47.858;9.594;2024-03-08T05:49:24;48.10;;;14.93;;
18200;SDS011;9226;47.858;9.594;2024-03-08T05:51:50;50.37;;;15.03;;
18200;SDS011;9226;47.858;9.594;2024-03-08T05:54:16;45.60;;;15.47;;
18200;SDS011;9226;47.858;9.594;2024-03-08T05:56:42;46.90;;;14.87;;
18200;SDS011;9226;47.858;9.594;2024-03-08T05:59:08;47.00;;;14.77;;
18200;SDS011;9226;47.858;9.594;2024-03-08T06:01:34;45.10;;;14.53;;
18200;SDS011;9226;47.858;9.594;2024-03-08T06:04:01;45.73;;;14.23;;
18200;SDS011;9226;47.858;9.594;2024-03-08T06:06:28;45.20;;;14.60;;
18200;SDS011;9226;47.858;9.594;2024-03-08T06:08:53;38.77;;;13.83;;
18200;SDS011;9226;47.858;9.594;2024-03-08T06:11:21;40.80;;;13.53;;
18200;SDS011;9226;47.858;9.594;2024-03-08T06:13:47;56.87;;;13.83;;
18200;SDS011;9226;47.858;9.594;2024-03-08T06:16:13;42.50;;;13.67;;
18200;SDS011;9226;47.858;9.594;2024-03-08T06:18:38;36.97;;;12.50;;
18200;SDS011;9226;47.858;9.594;2024-03-08T06:21:07;36.60;;;13.43;;
18200;SDS011;9226;47.858;9.594;2024-03-08T06:23:39;44.33;;;13.73;;
18200;SDS011;9226;47.858;9.594;2024-03-08T06:26:04;38.27;;;12.07;;
18200;SDS011;9226;47.858;9.594;2024-03-08T06:28:30;37.27;;;12.93;;
18200;SDS011;9226;47.858;9.594;2024-03-08T06:30:57;38.40;;;12.83;;
18200;SDS011;9226;47.858;9.594;2024-03-08T06:33:23;41.03;;;13.47;;
18200;SDS011;9226;47.858;9.594;2024-03-08T06:35:48;33.70;;;12.40;;
18200;SDS011;9226;47.858;9.594;2024-03-08T06:38:13;37.73;;;13.00;;
18200;SDS011;9226;47.858;9.594;2024-03-08T06:40:40;36.53;;;12.83;;
18200;SDS011;9226;47.858;9.594;2024-03-08T06:43:05;34.80;;;11.80;;
18200;SDS011;9226;47.858;9.594;2024-03-08T06:45:31;33.97;;;12.17;;
18200;SDS011;9226;47.858;9.594;2024-03-08T06:47:57;37.33;;;12.20;;
18200;SDS011;9226;47.858;9.594;2024-03-08T06:50:22;38.90;;;12.33;;
18200;SDS011;9226;47.858;9.594;2024-03-08T06:52:47;42.47;;;12.10;;
18200;SDS011;9226;47.858;9.594;2024-03-08T06:55:18;35.33;;;11.73;;
18200;SDS011;9226;47.858;9.594;2024-03-08T06:57:44;38.47;;;11.83;;
18200;SDS011;9226;47.858;9.594;2024-03-08T07:00:10;36.20;;;12.60;;
18200;SDS011;9226;47.858;9.594;2024-03-08T07:02:38;36.70;;;11.93;;
18200;SDS011;9226;47.858;9.594;2024-03-08T07:05:05;33.37;;;11.80;;
18200;SDS011;9226;47.858;9.594;2024-03-08T07:07:31;35.60;;;12.27;;
18200;SDS011;9226;47.858;9.594;2024-03-08T07:09:57;32.27;;;12.00;;
18200;SDS011;9226;47.858;9.594;2024-03-08T07:12:22;31.30;;;10.67;;
18200;SDS011;9226;47.858;9.594;2024-03-08T07:14:48;40.77;;;12.20;;
18200;SDS011;9226;47.858;9.594;2024-03-08T07:17:13;35.83;;;11.53;;
18200;SDS011;9226;47.858;9.594;2024-03-08T07:19:39;38.87;;;12.23;;
18200;SDS011;9226;47.858;9.594;2024-03-08T07:22:05;33.47;;;11.00;;
18200;SDS011;9226;47.858;9.594;2024-03-08T07:24:33;36.77;;;11.97;;
18200;SDS011;9226;47.858;9.594;2024-03-08T07:27:03;34.07;;;11.60;;
18200;SDS011;9226;47.858;9.594;2024-03-08T07:29:30;35.23;;;12.53;;
18200;SDS011;9226;47.858;9.594;2024-03-08T07:31:55;38.57;;;12.00;;
18200;SDS011;9226;47.858;9.594;2024-03-08T07:34:27;32.37;;;11.47;;
18200;SDS011;9226;47.858;9.594;2024-03-08T07:36:57;31.37;;;10.37;;
18200;SDS011;9226;47.858;9.594;2024-03-08T07:39:23;40.07;;;11.83;;
18200;SDS011;9226;47.858;9.594;2024-03-08T07:41:49;35.67;;;11.30;;
18200;SDS011;9226;47.858;9.594;2024-03-08T07:44:17;36.33;;;12.20;;
18200;SDS011;9226;47.858;9.594;2024-03-08T07:46:43;39.47;;;12.17;;
18200;SDS011;9226;47.858;9.594;2024-03-08T07:49:09;38.80;;;13.23;;
18200;SDS011;9226;47.858;9.594;2024-03-08T07:51:36;53.33;;;11.93;;
18200;SDS011;9226;47.858;9.594;2024-03-08T07:54:02;33.70;;;11.73;;
18200;SDS011;9226;47.858;9.594;2024-03-08T07:56:29;42.40;;;12.43;;
18200;SDS011;9226;47.858;9.594;2024-03-08T07:58:54;36.67;;;12.67;;
18200;SDS011;9226;47.858;9.594;2024-03-08T08:01:20;38.53;;;11.83;;
18200;SDS011;9226;47.858;9.594;2024-03-08T08:03:46;33.87;;;11.97;;
18200;SDS011;9226;47.858;9.594;2024-03-08T08:06:13;37.67;;;11.83;;
18200;SDS011;9226;47.858;9.594;2024-03-08T08:08:43;32.80;;;11.23;;
18200;SDS011;9226;47.858;9.594;2024-03-08T08:11:09;33.13;;;11.47;;
18200;SDS011;9226;47.858;9.594;2024-03-08T08:13:36;34.77;;;11.83;;
18200;SDS011;9226;47.858;9.594;2024-03-08T08:16:04;40.23;;;11.37;;
18200;SDS011;9226;47.858;9.594;2024-03-08T08:18:31;35.93;;;11.40;;
18200;SDS011;9226;47.858;9.594;2024-03-08T08:20:58;36.57;;;12.63;;
18200;SDS011;9226;47.858;9.594;2024-03-08T08:23:25;32.57;;;12.00;;
18200;SDS011;9226;47.858;9.594;2024-03-08T08:25:51;30.73;;;11.60;;
18200;SDS011;9226;47.858;9.594;2024-03-08T08:28:16;32.87;;;11.67;;
18200;SDS011;9226;47.858;9.594;2024-03-08T08:30:48;33.63;;;12.03;;
18200;SDS011;9226;47.858;9.594;2024-03-08T08:33:14;35.40;;;12.40;;
18200;SDS011;9226;47.858;9.594;2024-03-08T08:35:40;34.57;;;11.37;;
18200;SDS011;9226;47.858;9.594;2024-03-08T08:38:05;34.80;;;11.53;;
18200;SDS011;9226;47.858;9.594;2024-03-08T08:40:32;37.60;;;12.53;;
18200;SDS011;9226;47.858;9.594;2024-03-08T08:43:01;34.60;;;12.33;;
18200;SDS011;9226;47.858;9.594;2024-03-08T08:45:29;41.03;;;12.40;;
18200;SDS011;9226;47.858;9.594;2024-03-08T08:47:55;37.20;;;13.50;;
18200;SDS011;9226;47.858;9.594;2024-03-08T08:50:21;40.07;;;13.50;;
18200;SDS011;9226;47.858;9.594;2024-03-08T08:52:50;35.23;;;12.87;;
18200;SDS011;9226;47.858;9.594;2024-03-08T08:55:16;39.20;;;13.13;;
18200;SDS011;9226;47.858;9.594;2024-03-08T08:57:45;37.47;;;13.13;;
18200;SDS011;9226;47.858;9.594;2024-03-08T09:00:11;39.57;;;14.23;;
18200;SDS011;9226;47.858;9.594;2024-03-08T09:02:40;43.37;;;14.90;;
18200;SDS011;9226;47.858;9.594;2024-03-08T09:05:06;50.63;;;19.17;;
18200;SDS011;9226;47.858;9.594;2024-03-08T09:07:32;52.33;;;19.43;;
18200;SDS011;9226;47.858;9.594;2024-03-08T09:09:58;53.50;;;22.30;;
18200;SDS011;9226;47.858;9.594;2024-03-08T09:12:24;56.63;;;23.13;;
18200;SDS011;9226;47.858;9.594;2024-03-08T09:14:50;53.57;;;20.20;;
18200;SDS011;9226;47.858;9.594;2024-03-08T09:17:15;43.60;;;17.60;;
18200;SDS011;9226;47.858;9.594;2024-03-08T09:19:46;43.20;;;15.67;;
18200;SDS011;9226;47.858;9.594;2024-03-08T09:22:12;34.93;;;12.17;;
18200;SDS011;9226;47.858;9.594;2024-03-08T09:24:38;33.77;;;12.43;;
18200;SDS011;9226;47.858;9.594;2024-03-08T09:27:03;30.50;;;11.03;;
18200;SDS011;9226;47.858;9.594;2024-03-08T09:29:29;31.77;;;11.67;;
18200;SDS011;9226;47.858;9.594;2024-03-08T09:31:54;36.50;;;12.07;;
18200;SDS011;9226;47.858;9.594;2024-03-08T09:34:20;36.20;;;13.20;;
18200;SDS011;9226;47.858;9.594;2024-03-08T09:36:46;32.40;;;11.73;;
18200;SDS011;9226;47.858;9.594;2024-03-08T09:39:11;37.43;;;12.97;;
18200;SDS011;9226;47.858;9.594;2024-03-08T09:41:42;35.07;;;11.57;;
18200;SDS011;9226;47.858;9.594;2024-03-08T09:44:13;34.13;;;12.10;;
18200;SDS011;9226;47.858;9.594;2024-03-08T09:46:39;36.73;;;11.93;;
18200;SDS011;9226;47.858;9.594;2024-03-08T09:49:05;40.13;;;13.23;;
18200;SDS011;9226;47.858;9.594;2024-03-08T09:51:31;40.00;;;13.53;;
18200;SDS011;9226;47.858;9.594;2024-03-08T09:53:59;41.37;;;15.47;;
18200;SDS011;9226;47.858;9.594;2024-03-08T09:56:25;40.47;;;14.67;;
18200;SDS011;9226;47.858;9.594;2024-03-08T09:58:52;39.63;;;14.53;;
18200;SDS011;9226;47.858;9.594;2024-03-08T10:01:38;44.83;;;16.73;;
18200;SDS011;9226;47.858;9.594;2024-03-08T10:04:04;36.30;;;13.57;;
18200;SDS011;9226;47.858;9.594;2024-03-08T10:06:29;48.17;;;18.03;;
18200;SDS011;9226;47.858;9.594;2024-03-08T10:08:56;46.17;;;17.93;;
18200;SDS011;9226;47.858;9.594;2024-03-08T10:11:22;44.87;;;15.83;;
18200;SDS011;9226;47.858;9.594;2024-03-08T10:13:48;41.13;;;16.87;;
18200;SDS011;9226;47.858;9.594;2024-03-08T10:16:15;32.07;;;12.27;;
18200;SDS011;9226;47.858;9.594;2024-03-08T10:18:42;38.33;;;13.60;;
18200;SDS011;9226;47.858;9.594;2024-03-08T10:21:08;38.93;;;13.30;;
18200;SDS011;9226;47.858;9.594;2024-03-08T10:23:38;35.70;;;13.20;;
18200;SDS011;9226;47.858;9.594;2024-03-08T10:26:11;31.00;;;12.67;;
18200;SDS011;9226;47.858;9.594;2024-03-08T10:28:39;31.90;;;11.73;;
18200;SDS011;9226;47.858;9.594;2024-03-08T10:31:05;35.33;;;13.37;;
18200;SDS011;9226;47.858;9.594;2024-03-08T10:33:31;36.37;;;13.87;;
18200;SDS011;9226;47.858;9.594;2024-03-08T10:35:56;34.07;;;13.00;;
18200;SDS011;9226;47.858;9.594;2024-03-08T10:38:22;30.30;;;11.50;;
18200;SDS011;9226;47.858;9.594;2024-03-08T10:40:48;31.23;;;12.97;;
18200;SDS011;9226;47.858;9.594;2024-03-08T10:43:26;33.13;;;12.33;;
18200;SDS011;9226;47.858;9.594;2024-03-08T10:46:15;35.10;;;12.23;;
18200;SDS011;9226;47.858;9.594;2024-03-08T10:48:47;31.90;;;12.40;;
18200;SDS011;9226;47.858;9.594;2024-03-08T10:51:15;26.93;;;10.93;;
18200;SDS011;9226;47.858;9.594;2024-03-08T10:53:40;30.83;;;11.43;;
18200;SDS011;9226;47.858;9.594;2024-03-08T10:56:07;34.10;;;12.47;;
18200;SDS011;9226;47.858;9.594;2024-03-08T10:58:34;27.33;;;11.07;;
18200;SDS011;9226;47.858;9.594;2024-03-08T11:01:01;26.80;;;10.73;;
18200;SDS011;9226;47.858;9.594;2024-03-08T11:06:13;25.43;;;10.73;;
18200;SDS011;9226;47.858;9.594;2024-03-08T11:08:41;31.90;;;12.10;;
18200;SDS011;9226;47.858;9.594;2024-03-08T11:13:55;29.07;;;12.27;;
18200;SDS011;9226;47.858;9.594;2024-03-08T11:19:00;25.93;;;11.97;;
18200;SDS011;9226;47.858;9.594;2024-03-08T11:21:30;31.50;;;11.83;;
18200;SDS011;9226;47.858;9.594;2024-03-08T11:24:05;27.07;;;11.47;;
18200;SDS011;9226;47.858;9.594;2024-03-08T11:26:32;29.83;;;13.03;;
18200;SDS011;9226;47.858;9.594;2024-03-08T11:32:04;23.37;;;10.47;;
18200;SDS011;9226;47.858;9.594;2024-03-08T11:34:30;22.10;;;9.97;;
18200;SDS011;9226;47.858;9.594;2024-03-08T11:36:55;24.27;;;10.10;;
18200;SDS011;9226;47.858;9.594;2024-03-08T11:39:21;24.23;;;9.43;;
18200;SDS011;9226;47.858;9.594;2024-03-08T11:41:49;27.03;;;11.23;;
18200;SDS011;9226;47.858;9.594;2024-03-08T11:44:14;28.30;;;11.50;;
18200;SDS011;9226;47.858;9.594;2024-03-08T11:46:41;27.93;;;11.10;;
18200;SDS011;9226;47.858;9.594;2024-03-08T11:49:11;28.60;;;11.27;;
18200;SDS011;9226;47.858;9.594;2024-03-08T11:51:37;29.87;;;11.80;;
18200;SDS011;9226;47.858;9.594;2024-03-08T11:54:03;26.17;;;11.33;;
18200;SDS011;9226;47.858;9.594;2024-03-08T11:56:28;22.67;;;10.43;;
18200;SDS011;9226;47.858;9.594;2024-03-08T11:58:56;23.73;;;10.60;;
18200;SDS011;9226;47.858;9.594;2024-03-08T12:01:25;24.20;;;10.67;;
18200;SDS011;9226;47.858;9.594;2024-03-08T12:03:54;22.70;;;10.93;;
18200;SDS011;9226;47.858;9.594;2024-03-08T12:06:24;25.90;;;10.63;;
18200;SDS011;9226;47.858;9.594;2024-03-08T12:08:49;25.37;;;11.97;;
18200;SDS011;9226;47.858;9.594;2024-03-08T12:11:15;24.63;;;11.13;;
18200;SDS011;9226;47.858;9.594;2024-03-08T12:13:44;19.10;;;9.30;;
18200;SDS011;9226;47.858;9.594;2024-03-08T12:16:11;21.80;;;10.03;;
18200;SDS011;9226;47.858;9.594;2024-03-08T12:18:37;23.10;;;10.50;;
18200;SDS011;9226;47.858;9.594;2024-03-08T12:21:11;23.53;;;10.60;;
18200;SDS011;9226;47.858;9.594;2024-03-08T12:23:39;25.17;;;10.57;;
18200;SDS011;9226;47.858;9.594;2024-03-08T12:26:15;25.83;;;10.67;;
18200;SDS011;9226;47.858;9.594;2024-03-08T12:28:43;21.07;;;10.70;;
18200;SDS011;9226;47.858;9.594;2024-03-08T12:31:09;29.07;;;10.93;;
18200;SDS011;9226;47.858;9.594;2024-03-08T12:33:53;23.40;;;10.80;;
18200;SDS011;9226;47.858;9.594;2024-03-08T12:36:20;27.40;;;10.63;;
18200;SDS011;9226;47.858;9.594;2024-03-08T12:38:46;26.87;;;10.70;;
18200;SDS011;9226;47.858;9.594;2024-03-08T12:41:15;25.47;;;11.43;;
18200;SDS011;9226;47.858;9.594;2024-03-08T12:43:44;27.70;;;10.70;;
18200;SDS011;9226;47.858;9.594;2024-03-08T12:46:16;26.37;;;10.87;;
18200;SDS011;9226;47.858;9.594;2024-03-08T12:48:45;23.87;;;10.63;;
18200;SDS011;9226;47.858;9.594;2024-03-08T12:51:14;28.40;;;11.53;;
18200;SDS011;9226;47.858;9.594;2024-03-08T12:53:43;26.13;;;10.43;;
18200;SDS011;9226;47.858;9.594;2024-03-08T12:56:09;26.77;;;12.30;;
18200;SDS011;9226;47.858;9.594;2024-03-08T12:58:36;23.83;;;11.10;;
18200;SDS011;9226;47.858;9.594;2024-03-08T13:01:04;23.13;;;10.73;;
18200;SDS011;9226;47.858;9.594;2024-03-08T13:03:32;26.03;;;11.27;;
18200;SDS011;9226;47.858;9.594;2024-03-08T13:05:59;26.97;;;10.63;;
18200;SDS011;9226;47.858;9.594;2024-03-08T13:08:25;26.67;;;11.33;;
18200;SDS011;9226;47.858;9.594;2024-03-08T13:10:52;29.87;;;12.07;;
18200;SDS011;9226;47.858;9.594;2024-03-08T13:13:18;28.77;;;11.37;;
18200;SDS011;9226;47.858;9.594;2024-03-08T13:15:44;24.37;;;10.83;;
18200;SDS011;9226;47.858;9.594;2024-03-08T13:18:10;26.33;;;10.60;;
18200;SDS011;9226;47.858;9.594;2024-03-08T13:20:36;29.80;;;11.33;;
18200;SDS011;9226;47.858;9.594;2024-03-08T13:23:05;25.73;;;11.27;;
18200;SDS011;9226;47.858;9.594;2024-03-08T13:25:30;31.03;;;11.20;;
18200;SDS011;9226;47.858;9.594;2024-03-08T13:27:56;28.73;;;10.87;;
18200;SDS011;9226;47.858;9.594;2024-03-08T13:30:24;28.93;;;11.93;;
18200;SDS011;9226;47.858;9.594;2024-03-08T13:32:52;28.63;;;11.30;;
18200;SDS011;9226;47.858;9.594;2024-03-08T13:35:18;24.63;;;11.10;;
18200;SDS011;9226;47.858;9.594;2024-03-08T13:37:49;29.20;;;11.23;;
18200;SDS011;9226;47.858;9.594;2024-03-08T13:40:16;28.57;;;11.10;;
18200;SDS011;9226;47.858;9.594;2024-03-08T13:42:45;27.10;;;11.33;;
18200;SDS011;9226;47.858;9.594;2024-03-08T13:45:11;26.70;;;10.73;;
18200;SDS011;9226;47.858;9.594;2024-03-08T13:47:38;28.40;;;11.93;;
18200;SDS011;9226;47.858;9.594;2024-03-08T13:50:07;28.53;;;10.90;;
18200;SDS011;9226;47.858;9.594;2024-03-08T13:52:37;27.13;;;11.13;;
18200;SDS011;9226;47.858;9.594;2024-03-08T13:55:03;24.10;;;10.67;;
18200;SDS011;9226;47.858;9.594;2024-03-08T13:57:32;23.50;;;10.57;;
18200;SDS011;9226;47.858;9.594;2024-03-08T14:03:19;25.73;;;10.93;;
18200;SDS011;9226;47.858;9.594;2024-03-08T14:05:45;28.27;;;11.53;;
18200;SDS011;9226;47.858;9.594;2024-03-08T14:08:11;31.80;;;12.03;;
18200;SDS011;9226;47.858;9.594;2024-03-08T14:10:37;25.33;;;10.70;;
18200;SDS011;9226;47.858;9.594;2024-03-08T14:13:03;28.60;;;11.20;;
18200;SDS011;9226;47.858;9.594;2024-03-08T14:15:30;25.40;;;11.30;;
18200;SDS011;9226;47.858;9.594;2024-03-08T14:17:56;25.20;;;11.27;;
18200;SDS011;9226;47.858;9.594;2024-03-08T14:20:22;29.00;;;10.90;;
18200;SDS011;9226;47.858;9.594;2024-03-08T14:22:50;24.40;;;10.00;;
18200;SDS011;9226;47.858;9.594;2024-03-08T14:25:22;22.83;;;10.17;;
18200;SDS011;9226;47.858;9.594;2024-03-08T14:27:52;27.87;;;11.47;;
18200;SDS011;9226;47.858;9.594;2024-03-08T14:30:18;24.50;;;9.90;;
18200;SDS011;9226;47.858;9.594;2024-03-08T14:32:57;26.97;;;11.37;;
18200;SDS011;9226;47.858;9.594;2024-03-08T14:35:34;28.37;;;10.60;;
18200;SDS011;9226;47.858;9.594;2024-03-08T14:37:59;27.90;;;12.10;;
18200;SDS011;9226;47.858;9.594;2024-03-08T14:40:25;28.87;;;11.30;;
18200;SDS011;9226;47.858;9.594;2024-03-08T14:42:51;27.40;;;10.70;;
18200;SDS011;9226;47.858;9.594;2024-03-08T14:45:16;25.57;;;10.17;;
18200;SDS011;9226;47.858;9.594;2024-03-08T14:47:44;25.40;;;11.60;;